Time;durP1;ratioP1;P1;durP2;ratioP2;P2;SDS_P1;SDS_P2;PMS_P1;PMS_P2;Temp;Humidity;BMP_temperature;BMP_pressure;BME280_temperature;BME280_humidity;BME280_pressure;Samples;Min_cycle;Max_cycle;Signal;HPM_P1;HPM_P2
2020/12/25 00:01:11;;;;;;;0.20;0.20;;;;;;;3.22;90.87;94937.44;6058413;23;20195;-70
2020/12/25 00:03:38;;;;;;;0.10;0.10;;;;;;;3.24;90.84;94939.88;6058946;23;20248;-70
2020/12/25 00:06:05;;;;;;;0.20;0.20;;;;;;;3.25;91.13;94931.09;6058465;23;20175;-70
2020/12/25 00:08:32;;;;;;;0.37;0.30;;;;;;;3.29;91.04;94927.19;6059474;23;20202;-69
2020/12/25 00:10:59;;;;;;;0.30;0.30;;;;;;;3.31;91.77;94931.28;6058096;23;20192;-69
2020/12/25 00:13:26;;;;;;;0.10;0.10;;;;;;;3.27;91.80;94931.75;6059259;23;20196;-70
2020/12/25 00:15:52;;;;;;;0.30;0.20;;;;;;;3.11;92.31;94929.91;6060139;23;20615;-70
2020/12/25 00:18:19;;;;;;;0.40;0.40;;;;;;;3.05;92.83;94936.56;6058181;23;20755;-70
2020/12/25 00:20:48;;;;;;;0.30;0.30;;;;;;;2.97;92.57;94928.69;6059425;23;20187;-69
2020/12/25 00:23:16;;;;;;;0.20;0.20;;;;;;;3.06;92.32;94930.34;6059872;23;20167;-70
2020/12/25 00:25:43;;;;;;;0.30;0.30;;;;;;;3.08;92.56;94933.63;6060213;23;20179;-70
2020/12/25 00:28:10;;;;;;;0.13;0.13;;;;;;;3.10;92.38;94933.47;6059822;23;20178;-69
2020/12/25 00:30:41;;;;;;;0.30;0.30;;;;;;;3.12;92.83;94937.56;6059889;23;20229;-69
2020/12/25 00:33:08;;;;;;;0.47;0.47;;;;;;;3.06;92.68;94932.16;6059677;23;20904;-70
2020/12/25 00:35:35;;;;;;;0.30;0.30;;;;;;;3.12;92.59;94921.94;6059352;23;20250;-69
2020/12/25 00:38:02;;;;;;;0.33;0.20;;;;;;;3.18;92.98;94932.69;6060135;23;20170;-70
2020/12/25 00:40:30;;;;;;;0.33;0.33;;;;;;;3.24;93.09;94938.09;6059161;23;20202;-71
2020/12/25 00:42:56;;;;;;;0.40;0.33;;;;;;;3.23;92.60;94933.03;6059272;23;20171;-70
2020/12/25 00:45:23;;;;;;;0.30;0.30;;;;;;;3.13;93.11;94941.81;6059220;23;20171;-70
2020/12/25 00:47:50;;;;;;;0.83;0.47;;;;;;;3.27;93.00;94939.56;6060383;23;20206;-70
2020/12/25 00:50:17;;;;;;;0.50;0.50;;;;;;;3.29;93.65;94942.81;6057924;23;20198;-70
2020/12/25 00:52:44;;;;;;;0.60;0.60;;;;;;;3.29;92.75;94930.63;6058021;23;20267;-70
2020/12/25 00:55:11;;;;;;;0.40;0.40;;;;;;;3.26;93.04;94937.94;6058211;23;20197;-70
2020/12/25 00:57:40;;;;;;;0.47;0.47;;;;;;;3.35;93.39;94945.63;6056457;23;20171;-70
2020/12/25 01:00:13;;;;;;;0.40;0.40;;;;;;;3.26;93.29;94937.94;6058193;23;20241;-70
2020/12/25 01:02:40;;;;;;;0.40;0.40;;;;;;;3.29;93.38;94948.03;6059835;23;20178;-69
2020/12/25 01:05:07;;;;;;;0.63;0.63;;;;;;;3.14;94.20;94948.66;6059113;23;20276;-70
2020/12/25 01:07:34;;;;;;;0.60;0.60;;;;;;;3.11;94.30;94948.16;6053854;23;20198;-70
2020/12/25 01:10:01;;;;;;;0.90;0.90;;;;;;;3.06;94.59;94959.03;6057130;23;20202;-70
2020/12/25 01:12:28;;;;;;;0.60;0.60;;;;;;;3.03;94.38;94951.53;6058436;23;20174;-70
2020/12/25 01:14:55;;;;;;;1.30;0.93;;;;;;;3.22;93.40;94960.09;6056047;23;20670;-70
2020/12/25 01:17:26;;;;;;;1.17;1.10;;;;;;;3.19;93.15;94961.19;6059016;23;20173;-69
2020/12/25 01:19:53;;;;;;;0.70;0.70;;;;;;;3.11;93.57;94962.00;6058664;23;20253;-70
2020/12/25 01:22:21;;;;;;;0.70;0.60;;;;;;;3.10;93.37;94968.16;5956722;23;20290;-69
2020/12/25 01:24:48;;;;;;;0.67;0.67;;;;;;;3.13;93.62;94986.13;6056344;23;20672;-69
2020/12/25 01:27:15;;;;;;;1.23;1.13;;;;;;;3.13;93.24;94986.13;6046691;23;20662;-70
2020/12/25 01:29:42;;;;;;;1.00;0.90;;;;;;;2.92;92.90;94998.69;6072874;23;20235;-70
2020/12/25 01:32:10;;;;;;;0.60;0.60;;;;;;;2.65;92.83;95001.41;6054717;23;20222;-69
2020/12/25 01:34:36;;;;;;;0.80;0.80;;;;;;;2.43;92.71;95019.16;6055752;23;20309;-70
2020/12/25 01:37:03;;;;;;;0.67;0.67;;;;;;;2.27;93.32;95024.22;6056390;23;20272;-69
2020/12/25 01:39:30;;;;;;;0.60;0.60;;;;;;;2.14;93.24;95040.22;6053869;23;20210;-70
2020/12/25 01:41:57;;;;;;;0.40;0.30;;;;;;;2.08;93.47;95032.16;6055665;23;20204;-69
2020/12/25 01:44:24;;;;;;;0.20;0.20;;;;;;;1.85;93.44;95039.59;6055734;23;20206;-69
2020/12/25 01:46:51;;;;;;;0.50;0.30;;;;;;;1.65;93.07;95020.66;6055674;23;20210;-70
2020/12/25 01:49:19;;;;;;;0.37;0.37;;;;;;;1.57;93.60;95046.56;6056282;23;20597;-70
2020/12/25 01:51:46;;;;;;;0.20;0.20;;;;;;;1.53;93.03;95050.41;6054508;23;20202;-70
2020/12/25 01:54:13;;;;;;;0.10;0.10;;;;;;;1.33;93.92;95058.28;6057399;23;20267;-70
2020/12/25 01:56:42;;;;;;;0.20;0.20;;;;;;;1.33;94.29;95081.69;6053786;23;20231;-70
2020/12/25 01:59:11;;;;;;;0.10;0.10;;;;;;;1.29;94.51;95072.53;6056566;23;20214;-70
2020/12/25 02:01:39;;;;;;;0.30;0.20;;;;;;;1.26;93.97;95085.78;6056350;23;20267;-70
2020/12/25 02:04:05;;;;;;;0.30;0.30;;;;;;;1.21;94.41;95087.19;6056416;23;20271;-70
2020/12/25 02:06:38;;;;;;;0.60;0.30;;;;;;;1.20;94.53;95101.97;6056508;23;20217;-70
2020/12/25 02:09:05;;;;;;;0.20;0.20;;;;;;;1.01;94.92;95107.22;6057595;23;20282;-70
2020/12/25 02:11:33;;;;;;;0.20;0.20;;;;;;;0.96;95.41;95112.81;6057522;23;20553;-69
2020/12/25 02:14:00;;;;;;;0.13;0.13;;;;;;;0.91;95.56;95121.97;6056427;23;20215;-70
2020/12/25 02:16:27;;;;;;;0.10;0.10;;;;;;;0.85;95.24;95129.34;6057392;23;20207;-70
2020/12/25 02:18:54;;;;;;;0.10;0.10;;;;;;;0.65;95.21;95127.72;6058199;23;20234;-70
2020/12/25 02:21:21;;;;;;;0.20;0.20;;;;;;;0.61;95.43;95141.09;6058607;23;20662;-70
2020/12/25 02:23:48;;;;;;;0.10;0.10;;;;;;;0.61;95.14;95149.72;6058155;23;20201;-70
2020/12/25 02:26:15;;;;;;;0.00;0.00;;;;;;;0.55;95.50;95152.88;6058811;23;20214;-68
2020/12/25 02:28:42;;;;;;;0.20;0.20;;;;;;;0.56;95.75;95147.53;6057780;23;20774;-70
2020/12/25 02:31:09;;;;;;;0.27;0.27;;;;;;;0.40;95.32;95155.03;6056206;23;20289;-69
2020/12/25 02:33:36;;;;;;;0.10;0.10;;;;;;;0.40;95.83;95154.22;6057268;23;20799;-70
2020/12/25 02:36:03;;;;;;;0.20;0.13;;;;;;;0.31;95.86;95160.19;6058718;23;20442;-69
2020/12/25 02:38:31;;;;;;;0.10;0.10;;;;;;;0.32;95.57;95154.03;6057721;23;20241;-70
2020/12/25 02:40:58;;;;;;;0.10;0.10;;;;;;;0.26;95.20;95164.00;6057446;23;20541;-70
2020/12/25 02:43:25;;;;;;;0.10;0.10;;;;;;;0.27;95.54;95162.22;6057031;23;20520;-70
2020/12/25 02:45:52;;;;;;;0.10;0.10;;;;;;;0.23;95.86;95174.66;6057426;23;20463;-70
2020/12/25 02:48:18;;;;;;;0.10;0.10;;;;;;;0.16;95.79;95173.53;6057743;23;20427;-70
2020/12/25 02:50:45;;;;;;;0.10;0.10;;;;;;;0.16;95.74;95172.72;6058258;23;20902;-68
2020/12/25 02:53:13;;;;;;;0.10;0.10;;;;;;;0.12;95.25;95179.94;6058321;23;20949;-70
2020/12/25 02:55:40;;;;;;;0.10;0.10;;;;;;;0.13;96.35;95184.19;6056559;23;20465;-69
2020/12/25 02:58:07;;;;;;;0.40;0.40;;;;;;;0.07;96.15;95208.03;6056391;23;20447;-69
2020/12/25 03:00:34;;;;;;;0.20;0.20;;;;;;;0.03;95.78;95183.34;6057634;23;20274;-69
2020/12/25 03:03:01;;;;;;;0.20;0.20;;;;;;;0.01;96.07;95189.63;6056413;23;20454;-70
2020/12/25 03:05:33;;;;;;;0.17;0.17;;;;;;;0.06;96.54;95198.63;6057812;23;20462;-70
2020/12/25 03:08:00;;;;;;;0.20;0.20;;;;;;;0.24;96.43;95209.19;6057639;23;20435;-69
2020/12/25 03:10:27;;;;;;;0.13;0.13;;;;;;;0.11;96.16;95204.25;6056432;23;20985;-69
2020/12/25 03:12:55;;;;;;;0.10;0.10;;;;;;;0.11;96.05;95196.47;6058472;23;20973;-70
2020/12/25 03:15:22;;;;;;;0.20;0.20;;;;;;;0.11;96.60;95209.44;6057251;23;20443;-70
2020/12/25 03:17:48;;;;;;;0.20;0.20;;;;;;;0.11;95.89;95206.03;6057292;23;20446;-70
2020/12/25 03:20:15;;;;;;;0.20;0.20;;;;;;;0.10;96.18;95210.41;6056440;23;20450;-69
2020/12/25 03:22:42;;;;;;;0.30;0.30;;;;;;;0.16;96.21;95225.41;6058217;23;20438;-70
2020/12/25 03:25:09;;;;;;;0.20;0.10;;;;;;;0.33;96.90;95220.56;6055325;23;20439;-70
2020/12/25 03:27:36;;;;;;;0.13;0.13;;;;;;;0.21;96.43;95222.44;6055078;23;20474;-69
2020/12/25 03:30:04;;;;;;;0.20;0.20;;;;;;;0.22;96.59;95235.28;6055444;23;20443;-69
2020/12/25 03:32:31;;;;;;;0.40;0.40;;;;;;;0.21;96.03;95232.81;6057594;23;20211;-69
2020/12/25 03:34:58;;;;;;;0.30;0.27;;;;;;;0.24;95.59;95253.31;6057589;23;20940;-70
2020/12/25 03:37:24;;;;;;;0.50;0.50;;;;;;;0.25;96.63;95255.78;6057932;23;20206;-70
2020/12/25 03:39:51;;;;;;;0.20;0.20;;;;;;;0.26;96.15;95252.22;6055658;23;20484;-69
2020/12/25 03:42:18;;;;;;;0.20;0.20;;;;;;;0.34;96.18;95253.34;6057721;23;20965;-70
2020/12/25 03:44:45;;;;;;;0.30;0.30;;;;;;;0.21;95.90;95264.78;6057710;23;21213;-69
2020/12/25 03:47:13;;;;;;;0.60;0.60;;;;;;;0.33;96.40;95268.09;6058332;23;20448;-70
2020/12/25 03:49:40;;;;;;;0.40;0.30;;;;;;;0.31;96.17;95264.00;6056957;23;21339;-69
2020/12/25 03:52:06;;;;;;;0.40;0.30;;;;;;;0.34;95.26;95279.31;6056304;23;20492;-69
2020/12/25 03:54:33;;;;;;;0.23;0.20;;;;;;;0.30;96.28;95288.31;6056197;23;20560;-70
2020/12/25 03:57:00;;;;;;;0.40;0.40;;;;;;;0.30;95.45;95283.94;6056517;23;20442;-69
2020/12/25 03:59:27;;;;;;;0.20;0.20;;;;;;;0.28;95.28;95286.66;6057306;23;20439;-69
2020/12/25 04:01:53;;;;;;;0.30;0.20;;;;;;;0.27;95.54;95290.22;6057942;23;20443;-70
2020/12/25 04:04:21;;;;;;;0.33;0.30;;;;;;;0.24;95.16;95290.47;6057208;23;20506;-70
2020/12/25 04:06:48;;;;;;;0.30;0.20;;;;;;;0.20;95.94;95294.28;6057854;23;21159;-69
2020/12/25 04:09:15;;;;;;;0.50;0.40;;;;;;;0.28;95.29;95297.06;6057526;23;20864;-68
2020/12/25 04:11:41;;;;;;;0.33;0.30;;;;;;;0.22;95.23;95297.56;6056963;23;20496;-70
2020/12/25 04:14:08;;;;;;;0.47;0.47;;;;;;;0.36;95.90;95308.53;6057285;23;20503;-70
2020/12/25 04:16:35;;;;;;;0.40;0.40;;;;;;;0.34;95.01;95315.63;6056256;23;20442;-70
2020/12/25 04:19:02;;;;;;;0.37;0.37;;;;;;;0.20;95.20;95314.22;6057427;23;20474;-70
2020/12/25 04:21:29;;;;;;;0.57;0.57;;;;;;;0.33;95.56;95319.19;6057148;23;20447;-69
2020/12/25 04:23:57;;;;;;;0.70;0.70;;;;;;;0.31;94.77;95326.28;6055668;23;21010;-70
2020/12/25 04:26:24;;;;;;;0.57;0.20;;;;;;;0.39;94.62;95318.69;6057425;23;20435;-70
2020/12/25 04:28:50;;;;;;;0.37;0.37;;;;;;;0.31;94.09;95328.88;6056777;23;20514;-69
2020/12/25 04:31:17;;;;;;;0.10;0.10;;;;;;;0.24;94.73;95338.94;6057166;23;20442;-69
2020/12/25 04:33:44;;;;;;;0.30;0.30;;;;;;;0.31;94.96;95337.47;6055854;23;20435;-70
2020/12/25 04:36:28;;;;;;;0.40;0.30;;;;;;;0.32;94.59;95352.09;6057397;23;20505;-69
2020/12/25 04:38:56;;;;;;;0.30;0.30;;;;;;;0.23;95.01;95343.31;6057188;23;20214;-69
2020/12/25 04:41:23;;;;;;;0.47;0.47;;;;;;;0.26;95.20;95350.84;6057443;23;20450;-70
2020/12/25 04:43:52;;;;;;;2.47;0.20;;;;;;;0.23;95.59;95345.91;6056159;23;20443;-70
2020/12/25 04:46:22;;;;;;;0.47;0.47;;;;;;;0.20;95.63;95356.56;6057423;23;20271;-69
2020/12/25 04:48:50;;;;;;;1.57;0.27;;;;;;;0.27;95.58;95362.88;6055270;23;20812;-70
2020/12/25 04:51:17;;;;;;;0.30;0.27;;;;;;;0.17;94.97;95366.34;6057414;23;20214;-70
2020/12/25 04:53:49;;;;;;;0.20;0.20;;;;;;;0.18;95.27;95362.78;6057389;23;20439;-70
2020/12/25 04:56:17;;;;;;;0.20;0.20;;;;;;;0.26;94.94;95381.16;6030424;23;20815;-69
2020/12/25 04:58:44;;;;;;;0.17;0.17;;;;;;;0.25;94.79;95380.31;6028486;23;20823;-70
2020/12/25 05:01:11;;;;;;;0.40;0.30;;;;;;;0.21;94.97;95381.56;6027007;23;21136;-70
2020/12/25 05:03:40;;;;;;;0.50;0.50;;;;;;;0.16;95.20;95381.09;6023907;23;20540;-70
2020/12/25 05:06:09;;;;;;;0.40;0.30;;;;;;;0.07;95.43;95379.25;6026611;23;20493;-70
2020/12/25 05:08:37;;;;;;;0.40;0.40;;;;;;;0.01;95.59;95382.38;6026042;23;20201;-69
2020/12/25 05:11:05;;;;;;;0.50;0.50;;;;;;;-0.06;95.60;95376.03;6028313;23;20452;-69
2020/12/25 05:13:33;;;;;;;0.80;0.67;;;;;;;0.09;95.43;95390.34;6026120;23;20448;-70
2020/12/25 05:16:00;;;;;;;0.67;0.67;;;;;;;0.05;95.67;95388.94;6025122;23;20449;-68
2020/12/25 05:18:31;;;;;;;1.10;1.00;;;;;;;0.03;95.55;95385.66;6025821;23;20500;-70
2020/12/25 05:21:08;;;;;;;0.30;0.30;;;;;;;0.07;95.54;95404.38;6027958;23;20500;-69
2020/12/25 05:23:37;;;;;;;0.80;0.63;;;;;;;0.18;95.36;95399.97;6026631;23;20423;-70
2020/12/25 05:26:05;;;;;;;1.33;0.83;;;;;;;0.19;95.08;95406.81;6025496;23;20801;-70
2020/12/25 05:28:36;;;;;;;0.70;0.70;;;;;;;0.16;95.32;95414.00;6026105;23;20437;-70
2020/12/25 05:31:04;;;;;;;1.57;1.00;;;;;;;0.16;95.16;95407.03;6028088;23;20441;-70
2020/12/25 05:33:32;;;;;;;2.17;0.50;;;;;;;0.10;95.31;95407.56;6025718;23;20445;-69
2020/12/25 05:36:01;;;;;;;0.53;0.50;;;;;;;0.21;95.32;95417.88;6028793;23;20495;-69
2020/12/25 05:38:28;;;;;;;0.87;0.70;;;;;;;0.20;95.51;95405.03;6026080;23;20449;-70
2020/12/25 05:40:55;;;;;;;0.70;0.70;;;;;;;0.12;95.14;95410.84;6026330;23;20932;-70
2020/12/25 05:43:22;;;;;;;0.90;0.80;;;;;;;0.17;95.47;95421.66;6026447;23;20484;-70
2020/12/25 05:45:50;;;;;;;0.70;0.67;;;;;;;0.21;95.29;95420.47;6027582;23;20431;-70
2020/12/25 05:48:16;;;;;;;1.50;1.30;;;;;;;0.27;94.69;95429.50;6028064;23;20256;-70
2020/12/25 05:50:44;;;;;;;1.10;1.00;;;;;;;0.23;94.77;95423.75;6025968;23;20500;-70
2020/12/25 05:53:11;;;;;;;1.90;1.00;;;;;;;0.23;94.80;95423.75;6025634;23;20231;-70
2020/12/25 05:55:38;;;;;;;0.80;0.80;;;;;;;0.27;95.22;95429.50;6025857;23;20457;-70
2020/12/25 05:58:06;;;;;;;0.87;0.87;;;;;;;0.28;94.78;95436.38;6026221;23;20208;-71
2020/12/25 06:00:34;;;;;;;1.43;1.23;;;;;;;0.27;94.99;95432.94;6027285;23;20682;-70
2020/12/25 06:03:01;;;;;;;1.17;1.10;;;;;;;0.27;94.21;95445.06;6025967;23;20656;-71
2020/12/25 06:05:28;;;;;;;1.37;1.30;;;;;;;0.22;94.57;95437.69;6023715;23;20201;-70
2020/12/25 06:07:56;;;;;;;1.57;1.47;;;;;;;0.17;94.53;95439.81;6027909;23;20535;-70
2020/12/25 06:10:25;;;;;;;1.27;1.17;;;;;;;0.24;94.47;95434.97;6025340;23;20208;-70
2020/12/25 06:12:53;;;;;;;1.60;1.50;;;;;;;0.26;94.46;95444.25;6001953;23;20960;-70
2020/12/25 06:15:24;;;;;;;0.93;0.80;;;;;;;0.40;94.89;95442.31;6025370;23;20245;-70
2020/12/25 06:18:05;;;;;;;2.30;2.10;;;;;;;0.32;94.04;95452.50;6026565;23;20432;-70
2020/12/25 06:20:38;;;;;;;1.93;1.73;;;;;;;0.27;94.50;95451.13;6025025;23;20516;-70
2020/12/25 06:23:07;;;;;;;1.47;1.37;;;;;;;0.27;94.08;95445.94;6024002;23;20252;-70
2020/12/25 06:25:36;;;;;;;1.73;1.63;;;;;;;0.23;95.25;95464.44;6025532;23;20501;-70
2020/12/25 06:28:03;;;;;;;1.73;1.63;;;;;;;0.26;93.96;95459.81;6027631;23;20851;-71
2020/12/25 06:30:30;;;;;;;1.53;1.43;;;;;;;0.38;94.37;95462.38;6027142;23;20260;-70
2020/12/25 06:32:58;;;;;;;0.87;0.87;;;;;;;0.39;94.26;95464.03;6040533;23;20235;-70
2020/12/25 06:35:34;;;;;;;1.83;1.73;;;;;;;0.34;94.55;95463.56;6056355;23;20209;-70
2020/12/25 06:38:08;;;;;;;1.70;1.60;;;;;;;0.39;94.62;95479.59;6055000;23;20436;-71
2020/12/25 06:40:35;;;;;;;1.23;1.13;;;;;;;0.43;94.20;95479.22;6055545;23;20519;-70
2020/12/25 06:43:02;;;;;;;1.00;1.00;;;;;;;0.44;93.93;95465.28;6055635;23;20205;-70
2020/12/25 06:45:31;;;;;;;1.53;1.43;;;;;;;0.47;93.88;95472.81;6055245;23;20203;-69
2020/12/25 06:48:16;;;;;;;1.13;1.13;;;;;;;0.44;94.30;95477.44;6056791;23;20198;-70
2020/12/25 06:50:46;;;;;;;1.53;1.00;;;;;;;0.41;94.07;95482.88;6054852;23;20252;-69
2020/12/25 06:53:31;;;;;;;3.00;2.73;;;;;;;0.45;93.89;95492.06;6053888;23;20260;-69
2020/12/25 06:56:11;;;;;;;1.07;0.97;;;;;;;0.36;93.80;95479.81;6027666;23;20589;-68
2020/12/25 06:58:41;;;;;;;1.10;1.00;;;;;;;0.28;93.74;95488.28;6029074;23;20261;-69
2020/12/25 07:01:08;;;;;;;1.40;1.30;;;;;;;0.32;94.02;95483.63;6029229;23;20205;-69
2020/12/25 07:03:37;;;;;;;1.20;1.10;;;;;;;0.40;94.61;95482.06;6028458;23;20473;-69
2020/12/25 07:06:06;;;;;;;1.27;1.17;;;;;;;0.38;94.23;95498.72;6029271;23;20202;-68
2020/12/25 07:08:34;;;;;;;1.37;1.27;;;;;;;0.24;94.26;95498.06;6028441;23;20724;-68
2020/12/25 07:11:03;;;;;;;0.97;0.97;;;;;;;0.35;94.10;95499.78;6028198;23;20492;-69
2020/12/25 07:13:34;;;;;;;1.97;1.87;;;;;;;0.37;93.73;95505.69;6025800;23;20437;-69
2020/12/25 07:16:01;;;;;;;1.60;1.50;;;;;;;0.36;94.27;95516.16;6027682;23;20267;-69
2020/12/25 07:18:29;;;;;;;1.77;1.67;;;;;;;0.44;94.30;95518.97;6029175;23;20236;-69
2020/12/25 07:20:57;;;;;;;1.57;1.47;;;;;;;0.39;94.29;95523.72;6027554;23;20224;-69
2020/12/25 07:23:25;;;;;;;1.77;1.67;;;;;;;0.45;94.79;95520.59;6030205;23;20220;-69
2020/12/25 07:25:56;;;;;;;1.40;1.30;;;;;;;0.44;94.53;95524.16;6027900;23;20779;-69
2020/12/25 07:28:24;;;;;;;2.10;1.57;;;;;;;0.60;94.53;95523.72;6029462;23;20742;-69
2020/12/25 07:30:53;;;;;;;1.33;1.23;;;;;;;0.57;94.12;95520.44;6029216;23;20278;-69
2020/12/25 07:33:20;;;;;;;1.60;1.50;;;;;;;0.59;94.08;95530.69;6026517;23;20209;-69
2020/12/25 07:35:47;;;;;;;1.30;1.20;;;;;;;0.62;93.98;95527.00;6029256;23;20252;-68
2020/12/25 07:38:28;;;;;;;1.90;1.73;;;;;;;0.66;93.93;95528.44;6028639;23;20269;-69
2020/12/25 07:40:55;;;;;;;1.60;1.50;;;;;;;0.75;93.20;95538.06;6029484;23;20269;-68
2020/12/25 07:43:22;;;;;;;1.57;1.47;;;;;;;0.80;92.92;95535.88;6079142;23;20222;-70
2020/12/25 07:45:50;;;;;;;1.20;1.10;;;;;;;0.89;92.55;95539.50;6056637;23;20540;-70
2020/12/25 07:48:18;;;;;;;1.80;1.70;;;;;;;0.89;91.93;95544.69;6044475;23;22515;-69
2020/12/25 07:50:46;;;;;;;1.10;1.10;;;;;;;0.89;92.19;95542.09;6053675;23;20240;-70
2020/12/25 07:53:15;;;;;;;1.63;1.53;;;;;;;0.88;92.41;95548.25;6057070;23;20206;-69
2020/12/25 07:55:44;;;;;;;1.53;1.30;;;;;;;0.90;92.28;95551.53;6055379;23;20205;-69
2020/12/25 07:58:13;;;;;;;1.20;1.10;;;;;;;0.93;92.28;95549.53;6057175;23;20206;-69
2020/12/25 08:00:41;;;;;;;1.63;1.53;;;;;;;0.85;93.16;95544.13;6054427;23;20229;-69
2020/12/25 08:03:09;;;;;;;2.37;2.27;;;;;;;0.93;92.48;95546.09;6058158;23;20780;-69
2020/12/25 08:05:36;;;;;;;1.43;1.33;;;;;;;1.06;91.98;95546.72;6058517;23;20209;-69
2020/12/25 08:08:04;;;;;;;1.83;1.73;;;;;;;0.91;92.10;95545.38;6057699;23;20225;-69
2020/12/25 08:10:34;;;;;;;1.80;1.70;;;;;;;0.97;92.37;95542.28;6055375;23;20209;-69
2020/12/25 08:13:05;;;;;;;1.93;1.77;;;;;;;0.98;92.05;95549.13;6057482;23;20210;-69
2020/12/25 08:15:33;;;;;;;1.93;1.83;;;;;;;1.06;91.15;95551.91;6058220;23;20208;-69
2020/12/25 08:18:03;;;;;;;1.97;1.87;;;;;;;1.06;90.93;95549.31;6059281;23;20273;-69
2020/12/25 08:20:32;;;;;;;2.73;2.00;;;;;;;1.07;90.75;95550.94;6055820;23;20683;-70
2020/12/25 08:23:00;;;;;;;1.43;1.33;;;;;;;1.11;90.92;95554.97;6056423;23;20198;-68
2020/12/25 08:25:28;;;;;;;1.23;1.13;;;;;;;1.20;90.77;95558.56;6057252;23;20263;-69
2020/12/25 08:27:55;;;;;;;2.40;2.30;;;;;;;1.21;91.05;95558.44;6057286;23;20221;-69
2020/12/25 08:30:23;;;;;;;1.93;1.83;;;;;;;1.26;91.18;95569.25;6041794;23;20696;-70
2020/12/25 08:32:55;;;;;;;1.50;1.40;;;;;;;1.16;91.02;95570.97;6056628;23;20270;-69
2020/12/25 08:35:25;;;;;;;1.23;1.13;;;;;;;1.30;90.81;95577.63;6053989;23;20210;-69
2020/12/25 08:38:03;;;;;;;1.33;1.23;;;;;;;1.11;90.77;95565.34;6055206;23;20550;-69
2020/12/25 08:40:32;;;;;;;1.43;1.33;;;;;;;1.08;90.79;95578.56;6027015;23;20207;-70
2020/12/25 08:43:06;;;;;;;2.13;1.93;;;;;;;1.21;91.61;95575.81;6028433;23;20798;-70
2020/12/25 08:45:34;;;;;;;2.60;2.23;;;;;;;1.26;91.75;95579.63;6056629;23;20217;-70
2020/12/25 08:48:09;;;;;;;1.63;1.53;;;;;;;1.11;90.63;95581.75;6056975;23;20242;-69
2020/12/25 08:50:37;;;;;;;1.93;1.83;;;;;;;1.26;91.32;95595.25;6056588;23;20210;-70
2020/12/25 08:53:16;;;;;;;2.07;1.90;;;;;;;1.29;91.08;95594.19;6055603;23;20685;-70
2020/12/25 08:55:49;;;;;;;2.60;2.40;;;;;;;1.05;91.85;95603.06;6057335;23;20297;-69
2020/12/25 08:58:17;;;;;;;1.97;1.87;;;;;;;1.04;91.41;95610.97;6055192;23;20206;-69
2020/12/25 09:00:55;;;;;;;1.90;1.80;;;;;;;0.99;92.18;95613.13;6055740;23;20780;-69
2020/12/25 09:03:22;;;;;;;2.20;2.00;;;;;;;1.18;92.35;95607.22;6056068;23;20210;-69
2020/12/25 09:05:49;;;;;;;1.97;1.87;;;;;;;1.21;92.07;95602.59;6054848;23;20269;-69
2020/12/25 09:08:16;;;;;;;2.40;2.20;;;;;;;1.19;91.63;95607.13;6056026;23;20562;-69
2020/12/25 09:10:43;;;;;;;2.27;2.17;;;;;;;1.21;92.76;95604.38;6054503;23;20221;-69
2020/12/25 09:13:10;;;;;;;1.73;1.63;;;;;;;1.17;92.48;95601.19;6054989;23;20560;-69
2020/12/25 09:15:37;;;;;;;3.17;2.97;;;;;;;1.16;92.64;95609.13;6054692;23;20225;-70
2020/12/25 09:18:05;;;;;;;1.83;1.73;;;;;;;1.17;92.32;95611.59;6054830;23;20194;-69
2020/12/25 09:20:31;;;;;;;2.20;2.00;;;;;;;1.05;92.09;95617.81;6055812;23;20217;-70
2020/12/25 09:22:58;;;;;;;2.90;2.27;;;;;;;1.15;91.71;95608.31;6056420;23;20202;-69
2020/12/25 09:25:25;;;;;;;2.90;2.70;;;;;;;0.98;92.53;95608.88;6054203;23;20210;-70
2020/12/25 09:27:52;;;;;;;1.93;1.83;;;;;;;0.94;92.57;95620.50;6054867;23;20209;-69
2020/12/25 09:30:19;;;;;;;2.17;2.00;;;;;;;0.83;92.59;95624.78;6052892;23;20225;-69
2020/12/25 09:32:46;;;;;;;1.73;1.63;;;;;;;0.93;92.73;95629.22;6056096;23;20208;-69
2020/12/25 09:35:13;;;;;;;2.33;2.13;;;;;;;1.03;92.89;95630.13;6054877;23;20215;-69
2020/12/25 09:37:40;;;;;;;2.27;2.17;;;;;;;0.96;92.57;95623.78;6056357;23;20262;-69
2020/12/25 09:40:07;;;;;;;2.40;2.20;;;;;;;0.94;92.48;95629.09;6055529;23;20207;-69
2020/12/25 09:42:34;;;;;;;1.23;1.13;;;;;;;0.89;92.74;95625.22;6054053;23;20206;-70
2020/12/25 09:45:01;;;;;;;4.90;3.73;;;;;;;1.01;91.88;95627.66;6055361;23;20210;-69
2020/12/25 09:47:28;;;;;;;2.23;2.13;;;;;;;0.93;92.44;95631.84;6055770;23;20857;-69
2020/12/25 09:49:55;;;;;;;1.93;1.83;;;;;;;0.95;93.30;95635.13;6054414;23;20421;-68
2020/12/25 09:52:22;;;;;;;2.87;2.67;;;;;;;0.87;93.06;95630.53;6056307;23;20207;-68
2020/12/25 09:54:49;;;;;;;3.73;2.03;;;;;;;0.93;93.71;95631.84;6056086;23;20651;-68
2020/12/25 09:57:16;;;;;;;1.93;1.83;;;;;;;1.01;92.79;95635.44;6052903;23;20975;-69
2020/12/25 09:59:43;;;;;;;2.47;1.87;;;;;;;1.05;93.60;95638.59;6053070;23;20275;-69
2020/12/25 10:02:09;;;;;;;2.73;2.53;;;;;;;1.25;93.99;95635.19;6054250;23;20253;-69
2020/12/25 10:04:36;;;;;;;3.23;1.10;;;;;;;1.25;93.76;95632.59;6056354;23;20209;-68
2020/12/25 10:07:03;;;;;;;1.37;1.27;;;;;;;1.42;93.07;95637.19;6057762;23;20261;-70
2020/12/25 10:09:31;;;;;;;1.50;1.40;;;;;;;1.29;92.62;95631.41;6053019;23;20214;-69
2020/12/25 10:11:58;;;;;;;3.07;1.17;;;;;;;1.32;93.04;95625.94;6056957;23;20261;-69
2020/12/25 10:14:24;;;;;;;3.30;2.30;;;;;;;1.27;92.83;95627.25;6057493;23;20265;-69
2020/12/25 10:16:51;;;;;;;1.40;1.30;;;;;;;1.38;92.77;95629.81;6057848;23;20246;-70
2020/12/25 10:19:18;;;;;;;1.80;1.70;;;;;;;1.46;92.80;95639.53;6057312;23;20384;-69
2020/12/25 10:21:45;;;;;;;0.70;0.70;;;;;;;1.60;93.20;95629.63;6057480;23;20197;-68
2020/12/25 10:24:12;;;;;;;1.90;1.30;;;;;;;1.52;92.03;95631.22;6055955;23;20245;-69
2020/12/25 10:26:39;;;;;;;1.77;1.27;;;;;;;1.55;91.94;95636.16;6055761;23;20741;-69
2020/12/25 10:29:07;;;;;;;0.93;0.93;;;;;;;1.70;93.02;95637.47;6058413;23;20222;-69
2020/12/25 10:31:34;;;;;;;1.27;1.17;;;;;;;1.80;92.68;95638.34;6059397;23;20210;-70
2020/12/25 10:34:00;;;;;;;1.17;1.07;;;;;;;1.91;92.65;95638.25;6058355;23;20198;-69
2020/12/25 10:36:27;;;;;;;1.07;1.07;;;;;;;2.04;91.83;95643.22;6056600;23;20290;-69
2020/12/25 10:38:54;;;;;;;1.40;1.30;;;;;;;1.92;90.90;95634.72;6058505;23;20254;-69
2020/12/25 10:41:21;;;;;;;1.40;1.30;;;;;;;2.08;90.79;95633.38;6057234;23;20678;-72
2020/12/25 10:43:50;;;;;;;1.20;1.10;;;;;;;2.31;90.76;95626.19;6056912;23;20209;-71
2020/12/25 10:46:20;;;;;;;1.40;1.30;;;;;;;2.42;90.29;95632.09;6058226;23;20930;-72
2020/12/25 10:48:47;;;;;;;0.90;0.87;;;;;;;2.58;89.07;95626.38;6057601;23;20202;-72
2020/12/25 10:51:14;;;;;;;1.70;1.60;;;;;;;2.73;88.57;95631.97;6056839;23;20618;-69
2020/12/25 10:53:41;;;;;;;1.47;1.37;;;;;;;2.83;87.97;95624.97;6056832;23;20202;-69
2020/12/25 10:56:09;;;;;;;1.00;0.90;;;;;;;2.85;87.61;95628.31;6056823;23;20206;-69
2020/12/25 10:58:35;;;;;;;1.37;1.20;;;;;;;2.84;87.27;95622.25;6057016;23;20203;-69
2020/12/25 11:01:03;;;;;;;1.03;1.03;;;;;;;2.79;86.55;95623.63;6057588;23;20693;-69
2020/12/25 11:03:30;;;;;;;1.20;1.10;;;;;;;2.64;86.90;95627.59;6057619;23;20210;-69
2020/12/25 11:05:57;;;;;;;0.80;0.80;;;;;;;2.67;87.28;95629.94;6057951;23;20206;-69
2020/12/25 11:08:24;;;;;;;1.10;1.00;;;;;;;2.82;87.33;95623.34;6056829;23;20283;-68
2020/12/25 11:10:51;;;;;;;1.53;1.43;;;;;;;3.00;87.05;95626.91;6056222;23;20262;-68
2020/12/25 11:13:17;;;;;;;2.10;2.00;;;;;;;3.07;86.94;95627.19;6056680;23;20297;-69
2020/12/25 11:15:44;;;;;;;0.80;0.63;;;;;;;3.07;86.64;95633.22;6057966;23;20583;-69
2020/12/25 11:18:12;;;;;;;1.17;1.07;;;;;;;3.12;85.85;95635.44;6055855;23;20257;-70
2020/12/25 11:20:39;;;;;;;1.67;1.03;;;;;;;3.19;85.66;95626.06;6055887;23;20269;-69
2020/12/25 11:23:06;;;;;;;1.17;1.07;;;;;;;3.21;85.93;95623.34;6058264;23;20198;-68
2020/12/25 11:25:33;;;;;;;1.50;1.40;;;;;;;3.20;86.11;95624.28;6058118;23;20207;-69
2020/12/25 11:27:59;;;;;;;2.50;2.30;;;;;;;3.29;85.54;95626.03;6057842;23;20273;-69
2020/12/25 11:30:26;;;;;;;1.97;1.87;;;;;;;3.31;85.23;95624.97;6055182;23;20713;-68
2020/12/25 11:32:55;;;;;;;1.73;1.63;;;;;;;3.27;85.28;95620.16;6058480;23;20236;-69
2020/12/25 11:35:22;;;;;;;1.10;1.07;;;;;;;3.29;85.11;95620.81;6055501;23;20214;-69
2020/12/25 11:37:49;;;;;;;1.40;1.30;;;;;;;3.29;85.25;95619.06;6057722;23;20235;-69
2020/12/25 11:40:16;;;;;;;1.47;0.90;;;;;;;3.28;85.68;95621.78;6056800;23;20258;-69
2020/12/25 11:42:43;;;;;;;1.83;1.73;;;;;;;3.10;85.35;95622.50;6056727;23;20223;-69
2020/12/25 11:45:09;;;;;;;3.20;3.00;;;;;;;3.04;84.96;95617.88;6057735;23;20550;-69